createdAt,value
2017-10-01T00:02:19.875Z,100508.83
2017-10-01T00:05:21.286Z,100513.61
2017-10-01T00:08:22.608Z,100524.23
2017-10-01T00:11:23.889Z,100510.98
2017-10-01T00:14:26.036Z,100516.14
2017-10-01T00:17:27.411Z,100523.52
2017-10-01T00:20:29.515Z,100524.02
2017-10-01T00:23:30.880Z,100534.89
2017-10-01T00:26:32.222Z,100524.58
2017-10-01T00:29:33.910Z,100524.27
2017-10-01T00:32:35.248Z,100531.96
2017-10-01T00:35:36.561Z,100525.39
2017-10-01T00:38:37.864Z,100527.22
2017-10-01T00:41:39.207Z,100519.86
2017-10-01T00:44:40.519Z,100523.49
2017-10-01T00:47:41.823Z,100527.83
2017-10-01T00:50:43.407Z,100523.92
2017-10-01T00:53:44.686Z,100518.09
2017-10-01T00:56:45.997Z,100523.87
2017-10-01T00:59:48.039Z,100525.66
2017-10-01T01:02:49.360Z,100522.30
2017-10-01T01:05:50.677Z,100522.52
2017-10-01T01:08:52.075Z,100520.97
2017-10-01T01:11:53.384Z,100527.96
2017-10-01T01:14:54.731Z,100531.42
2017-10-01T01:17:56.003Z,100534.53
2017-10-01T01:20:57.331Z,100524.53
2017-10-01T01:23:59.016Z,100525.95
2017-10-01T01:27:00.326Z,100534.78
2017-10-01T01:30:01.654Z,100534.00
2017-10-01T01:33:03.011Z,100526.16
2017-10-01T01:36:05.098Z,100543.73
2017-10-01T01:39:06.447Z,100546.65
2017-10-01T01:42:07.759Z,100543.70
2017-10-01T01:45:09.071Z,100539.19
2017-10-01T01:48:11.162Z,100544.33
2017-10-01T01:51:12.471Z,100546.32
2017-10-01T01:54:13.792Z,100541.54
2017-10-01T01:57:15.834Z,100531.95
2017-10-01T02:00:17.183Z,100536.63
2017-10-01T02:03:18.518Z,100545.11
2017-10-01T02:06:19.827Z,100551.59
2017-10-01T02:09:21.241Z,100548.89
2017-10-01T02:12:23.070Z,100550.87
2017-10-01T02:15:24.898Z,100552.34
2017-10-01T02:18:26.926Z,100553.55
2017-10-01T02:21:29.398Z,100553.55
2017-10-01T02:24:31.527Z,100555.61
2017-10-01T02:27:32.842Z,100551.72
2017-10-01T02:30:34.931Z,100544.19
2017-10-01T02:33:36.246Z,100552.89
2017-10-01T02:36:37.622Z,100545.22
2017-10-01T02:39:38.951Z,100546.23
2017-10-01T02:42:40.276Z,100538.52
2017-10-01T02:45:41.590Z,100539.61
2017-10-01T02:48:42.906Z,100543.75
2017-10-01T02:51:44.997Z,100546.73
2017-10-01T02:54:46.291Z,100549.59
2017-10-01T02:57:47.595Z,100542.07
2017-10-01T03:00:48.900Z,100542.20
2017-10-01T03:03:50.224Z,100552.64
2017-10-01T03:06:51.763Z,100552.77
2017-10-01T03:09:53.062Z,100547.27
2017-10-01T03:12:54.393Z,100541.78
2017-10-01T03:15:55.755Z,100547.09
2017-10-01T03:18:57.069Z,100547.36
2017-10-01T03:21:58.345Z,100548.73
2017-10-01T03:24:59.698Z,100546.63
2017-10-01T03:28:01.419Z,100549.63
2017-10-01T03:31:02.736Z,100546.10
2017-10-01T03:34:04.840Z,100544.31
2017-10-01T03:37:06.135Z,100542.08
2017-10-01T03:40:07.472Z,100533.06
2017-10-01T03:43:08.769Z,100535.44
2017-10-01T03:46:10.099Z,100538.52
2017-10-01T03:49:12.316Z,100539.30
2017-10-01T03:52:13.631Z,100551.45
2017-10-01T03:55:14.986Z,100544.52
2017-10-01T03:58:16.508Z,100555.29
2017-10-01T04:01:17.963Z,100558.95
2017-10-01T04:04:19.377Z,100558.25
2017-10-01T04:07:20.877Z,100557.80
2017-10-01T04:10:22.866Z,100570.45
2017-10-01T04:13:24.288Z,100564.14
2017-10-01T04:16:26.766Z,100572.11
2017-10-01T04:19:28.906Z,100581.52
2017-10-01T04:22:30.320Z,100585.44
2017-10-01T04:25:31.774Z,100584.97
2017-10-01T04:28:33.243Z,100593.23
2017-10-01T04:31:34.648Z,100585.94
2017-10-01T04:34:36.877Z,100597.70
2017-10-01T04:37:38.716Z,100596.21
2017-10-01T04:40:40.175Z,100594.69
2017-10-01T04:43:41.614Z,100603.24
2017-10-01T04:46:43.000Z,100595.98
2017-10-01T04:49:44.463Z,100604.20
2017-10-01T04:52:45.883Z,100594.57
2017-10-01T04:55:47.421Z,100598.29
2017-10-01T04:58:48.718Z,100594.09
2017-10-01T05:01:49.976Z,100602.14
2017-10-01T05:04:51.274Z,100590.73
2017-10-01T05:07:52.581Z,100596.27
2017-10-01T05:10:53.852Z,100593.68
2017-10-01T05:13:55.846Z,100594.52
2017-10-01T05:16:57.164Z,100596.73
2017-10-01T05:19:59.238Z,100594.92
2017-10-01T05:23:00.575Z,100598.64
2017-10-01T05:26:02.654Z,100599.03
2017-10-01T05:29:03.981Z,100591.83
2017-10-01T05:32:05.254Z,100594.28
2017-10-01T05:35:06.593Z,100600.58
2017-10-01T05:38:08.663Z,100598.23
2017-10-01T05:41:10.698Z,100591.59
2017-10-01T05:44:12.009Z,100592.02
2017-10-01T05:47:13.318Z,100589.10
2017-10-01T05:50:15.325Z,100597.20
2017-10-01T05:53:16.634Z,100606.53
2017-10-01T05:56:18.672Z,100596.23
2017-10-01T05:59:19.982Z,100593.46
2017-10-01T06:02:21.543Z,100603.31
2017-10-01T06:05:22.910Z,100605.33
2017-10-01T06:08:24.369Z,100603.86
2017-10-01T06:11:25.776Z,100605.53
2017-10-01T06:14:27.244Z,100602.52
2017-10-01T06:17:28.620Z,100598.94
2017-10-01T06:20:30.087Z,100612.82
2017-10-01T06:23:31.515Z,100605.77
2017-10-01T06:26:32.937Z,100613.48
2017-10-01T06:29:34.781Z,100618.44
2017-10-01T06:32:36.915Z,100614.56
2017-10-01T06:35:38.439Z,100613.53
2017-10-01T06:38:39.826Z,100623.00
2017-10-01T06:41:41.278Z,100612.95
2017-10-01T06:44:42.697Z,100611.23
2017-10-01T06:47:44.162Z,100603.44
2017-10-01T06:50:45.589Z,100614.75
2017-10-01T06:53:47.049Z,100622.79
2017-10-01T06:56:48.495Z,100611.05
2017-10-01T06:59:49.890Z,100616.94
2017-10-01T07:02:51.212Z,100614.62
2017-10-01T07:05:52.521Z,100607.04
2017-10-01T07:08:54.573Z,100608.38
2017-10-01T07:11:55.846Z,100609.47
2017-10-01T07:14:57.244Z,100609.72
2017-10-01T07:17:58.525Z,100606.32
2017-10-01T07:20:59.828Z,100610.97
2017-10-01T07:24:01.218Z,100609.56
2017-10-01T07:27:02.505Z,100604.66
2017-10-01T07:30:03.823Z,100605.27
2017-10-01T07:33:05.116Z,100610.92
2017-10-01T07:36:06.426Z,100611.88
2017-10-01T07:39:08.451Z,100601.98
2017-10-01T07:42:09.793Z,100604.89
2017-10-01T07:45:11.108Z,100613.58
2017-10-01T07:48:12.418Z,100613.34
2017-10-01T07:51:13.963Z,100604.70
2017-10-01T07:54:15.247Z,100613.14
2017-10-01T07:57:17.425Z,100613.43
2017-10-01T08:00:19.454Z,100604.25
2017-10-01T08:03:20.762Z,100610.44
2017-10-01T08:06:22.035Z,100614.66
2017-10-01T08:09:23.368Z,100609.69
2017-10-01T08:12:24.679Z,100603.23
2017-10-01T08:15:26.720Z,100609.02
2017-10-01T08:18:28.012Z,100601.70
2017-10-01T08:21:29.267Z,100608.48
2017-10-01T08:24:30.586Z,100599.02
2017-10-01T08:27:32.604Z,100603.30
2017-10-01T08:30:33.930Z,100595.33
2017-10-01T08:33:35.255Z,100598.00
2017-10-01T08:36:37.309Z,100596.94
2017-10-01T08:39:38.819Z,100583.73
2017-10-01T08:42:40.063Z,100589.30
2017-10-01T08:45:41.360Z,100599.64
2017-10-01T08:48:42.644Z,100594.86
2017-10-01T08:51:43.924Z,100593.28
2017-10-01T08:54:45.916Z,100601.08
2017-10-01T08:57:47.220Z,100611.28
2017-10-01T09:00:48.489Z,100613.12
2017-10-01T09:03:49.781Z,100606.91
2017-10-01T09:06:51.970Z,100588.31
2017-10-01T09:09:53.240Z,100579.69
2017-10-01T09:12:54.589Z,100574.83
2017-10-01T09:15:55.906Z,100591.61
2017-10-01T09:18:57.937Z,100597.73
2017-10-01T09:21:59.242Z,100585.86
2017-10-01T09:25:00.540Z,100583.44
2017-10-01T09:28:01.808Z,100589.66
2017-10-01T09:31:03.867Z,100588.73
2017-10-01T09:34:05.313Z,100594.60
2017-10-01T09:37:06.747Z,100604.67
2017-10-01T09:40:08.151Z,100612.14
2017-10-01T09:43:09.655Z,100613.98
2017-10-01T09:46:11.034Z,100612.66
2017-10-01T09:49:12.334Z,100603.20
2017-10-01T09:52:14.499Z,100598.64
2017-10-01T09:55:15.926Z,100600.67
2017-10-01T09:58:17.340Z,100597.05
2017-10-01T10:01:18.727Z,100595.52
2017-10-01T10:04:20.156Z,100604.47
2017-10-01T10:07:22.353Z,100613.14
2017-10-01T10:10:23.824Z,100607.02
2017-10-01T10:13:25.236Z,100593.58
2017-10-01T10:16:27.424Z,100606.66
2017-10-01T10:19:28.810Z,100602.56
2017-10-01T10:22:31.162Z,100603.77
2017-10-01T10:25:33.004Z,100598.84
2017-10-01T10:28:35.136Z,100602.39
2017-10-01T10:31:36.453Z,100603.99
2017-10-01T10:34:37.888Z,100618.20
2017-10-01T10:37:39.224Z,100609.89
2017-10-01T10:40:41.236Z,100620.98
2017-10-01T10:43:42.562Z,100618.77
2017-10-01T10:46:43.832Z,100618.22
2017-10-01T10:49:45.144Z,100617.09
2017-10-01T10:52:46.582Z,100607.08
2017-10-01T10:55:48.624Z,100617.31
2017-10-01T10:58:49.928Z,100615.69
2017-10-01T11:01:51.210Z,100605.60
2017-10-01T11:04:52.517Z,100601.50
2017-10-01T11:07:53.760Z,100601.73
2017-10-01T11:10:55.059Z,100595.41
2017-10-01T11:13:56.493Z,100608.09
2017-10-01T11:16:57.751Z,100605.53
2017-10-01T11:19:59.036Z,100590.22
2017-10-01T11:23:01.043Z,100585.87
2017-10-01T11:26:02.351Z,100581.52
2017-10-01T11:29:04.348Z,100578.73
2017-10-01T11:32:05.711Z,100581.11
2017-10-01T11:35:07.140Z,100583.05
2017-10-01T11:38:08.498Z,100576.37
2017-10-01T11:41:09.819Z,100581.09
2017-10-01T11:44:11.903Z,100577.42
2017-10-01T11:47:13.515Z,100574.44
2017-10-01T11:50:14.809Z,100577.31
2017-10-01T11:53:16.087Z,100573.81
2017-10-01T11:56:17.356Z,100572.39
2017-10-01T11:59:18.678Z,100578.05
2017-10-01T12:02:19.943Z,100577.77
2017-10-01T12:05:21.256Z,100568.22
2017-10-01T12:08:22.580Z,100572.55
2017-10-01T12:11:24.634Z,100569.18
2017-10-01T12:14:25.920Z,100565.44
2017-10-01T12:17:27.220Z,100570.43
2017-10-01T12:20:28.523Z,100573.80
2017-10-01T12:23:29.879Z,100564.61
2017-10-01T12:26:31.299Z,100555.70
2017-10-01T12:29:33.448Z,100556.46
2017-10-01T12:32:34.850Z,100554.95
2017-10-01T12:35:36.168Z,100552.86
2017-10-01T12:38:38.214Z,100555.00
2017-10-01T12:41:39.499Z,100554.27
2017-10-01T12:44:40.808Z,100548.53
2017-10-01T12:47:42.063Z,100545.68
2017-10-01T12:50:43.345Z,100541.25
2017-10-01T12:53:44.645Z,100558.32
2017-10-01T12:56:45.989Z,100544.84
2017-10-01T12:59:47.303Z,100545.92
2017-10-01T13:02:48.628Z,100540.25
2017-10-01T13:05:50.631Z,100538.66
2017-10-01T13:08:51.908Z,100533.13
2017-10-01T13:11:53.432Z,100527.95
2017-10-01T13:14:54.711Z,100526.19
2017-10-01T13:17:56.028Z,100532.69
2017-10-01T13:20:57.295Z,100528.87
2017-10-01T13:23:58.572Z,100520.05
2017-10-01T13:26:59.856Z,100524.95
2017-10-01T13:30:01.171Z,100511.37
2017-10-01T13:33:02.568Z,100521.16
2017-10-01T13:36:03.900Z,100516.70
2017-10-01T13:39:06.292Z,100506.52
2017-10-01T13:42:07.930Z,100514.75
2017-10-01T13:45:09.262Z,100524.50
2017-10-01T13:48:11.328Z,100523.00
2017-10-01T13:51:12.674Z,100527.79
2017-10-01T13:54:13.987Z,100507.20
2017-10-01T13:57:15.330Z,100510.41
2017-10-01T14:00:16.686Z,100513.81
2017-10-01T14:03:17.959Z,100503.39
2017-10-01T14:06:19.465Z,100504.80
2017-10-01T14:09:20.752Z,100476.45
2017-10-01T14:12:22.089Z,100478.31
2017-10-01T14:15:23.404Z,100469.09
2017-10-01T14:18:24.712Z,100470.16
2017-10-01T14:21:25.992Z,100469.33
2017-10-01T14:24:28.070Z,100467.47
2017-10-01T14:27:29.388Z,100459.48
2017-10-01T14:30:36.710Z,100460.34
2017-10-01T14:33:38.033Z,100460.66
2017-10-01T14:36:39.361Z,100463.36
2017-10-01T14:39:40.639Z,100471.00
2017-10-01T14:42:42.678Z,100455.69
2017-10-01T14:45:45.458Z,100460.19
2017-10-01T14:48:46.742Z,100466.34
2017-10-01T14:51:48.796Z,100468.46
2017-10-01T14:54:50.299Z,100456.96
2017-10-01T14:57:51.583Z,100454.97
2017-10-01T15:00:52.886Z,100462.49
2017-10-01T15:03:54.487Z,100464.67
2017-10-01T15:06:55.789Z,100457.84
2017-10-01T15:09:57.041Z,100444.49
2017-10-01T15:12:58.360Z,100445.25
2017-10-01T15:16:00.368Z,100433.56
2017-10-01T15:19:01.694Z,100436.36
2017-10-01T15:22:03.029Z,100435.27
2017-10-01T15:25:05.068Z,100439.69
2017-10-01T15:28:06.371Z,100434.91
2017-10-01T15:31:07.682Z,100420.44
2017-10-01T15:34:09.872Z,100427.47
2017-10-01T15:37:11.194Z,100422.61
2017-10-01T15:40:12.524Z,100434.89
2017-10-01T15:43:13.792Z,100434.94
2017-10-01T15:46:15.093Z,100434.64
2017-10-01T15:49:16.404Z,100421.55
2017-10-01T15:52:18.456Z,100418.14
2017-10-01T15:55:19.752Z,100419.95
2017-10-01T15:58:21.097Z,100432.44
2017-10-01T16:01:22.438Z,100440.18
2017-10-01T16:04:23.761Z,100438.20
2017-10-01T16:07:25.435Z,100445.03
2017-10-01T16:10:27.448Z,100426.55
2017-10-01T16:13:28.732Z,100420.48
2017-10-01T16:16:30.037Z,100417.13
2017-10-01T16:19:31.339Z,100418.42
2017-10-01T16:22:33.351Z,100416.55
2017-10-01T16:25:34.680Z,100419.97
2017-10-01T16:28:35.961Z,100425.06
2017-10-01T16:31:37.260Z,100414.64
2017-10-01T16:34:39.371Z,100411.19
2017-10-01T16:37:40.643Z,100422.95
2017-10-01T16:40:42.074Z,100423.48
2017-10-01T16:43:43.369Z,100418.09
2017-10-01T16:46:45.416Z,100425.55
2017-10-01T16:49:47.031Z,100421.69
2017-10-01T16:52:48.349Z,100425.51
2017-10-01T16:55:50.377Z,100421.38
2017-10-01T16:58:51.632Z,100426.87
2017-10-01T17:01:52.934Z,100432.48
2017-10-01T17:04:54.205Z,100425.41
2017-10-01T17:07:55.578Z,100426.39
2017-10-01T17:10:56.867Z,100422.72
2017-10-01T17:13:59.182Z,100419.70
2017-10-01T17:17:00.771Z,100421.62
2017-10-01T17:20:02.996Z,100415.65
2017-10-01T17:23:05.657Z,100412.98
2017-10-01T17:26:07.819Z,100411.86
2017-10-01T17:29:10.670Z,100409.79
2017-10-01T17:32:11.983Z,100415.31
2017-10-01T17:35:14.134Z,100417.70
2017-10-01T17:38:16.600Z,100405.26
2017-10-01T17:41:19.389Z,100400.20
2017-10-01T17:44:22.378Z,100399.03
2017-10-01T17:47:23.829Z,100400.95
2017-10-01T17:50:27.362Z,100396.66
2017-10-01T17:53:29.535Z,100396.91
2017-10-01T17:56:31.059Z,100398.38
2017-10-01T17:59:32.354Z,100391.45
2017-10-01T18:02:33.832Z,100397.66
2017-10-01T18:05:35.868Z,100399.84
2017-10-01T18:08:37.265Z,100388.50
2017-10-01T18:11:38.657Z,100388.27
2017-10-01T18:14:39.949Z,100401.33
2017-10-01T18:17:42.068Z,100396.41
2017-10-01T18:20:46.091Z,100393.64
2017-10-01T18:23:47.920Z,100381.14
2017-10-01T18:26:49.389Z,100379.98
2017-10-01T18:29:50.707Z,100375.19
2017-10-01T18:32:52.180Z,100390.87
2017-10-01T18:35:53.541Z,100385.13
2017-10-01T18:38:55.687Z,100386.48
2017-10-01T18:41:57.107Z,100390.88
2017-10-01T18:44:58.619Z,100386.95
2017-10-01T18:48:00.830Z,100391.45
2017-10-01T18:51:03.813Z,100397.92
2017-10-01T18:54:06.181Z,100397.34
2017-10-01T18:57:08.292Z,100397.36
2017-10-01T19:00:12.529Z,100396.63
2017-10-01T19:03:14.323Z,100397.48
2017-10-01T19:06:17.239Z,100396.20
2017-10-01T19:09:20.629Z,100393.18
2017-10-01T19:12:22.954Z,100394.37
2017-10-01T19:15:25.333Z,100403.59
2017-10-01T19:18:26.781Z,100384.62
2017-10-01T19:21:29.268Z,100365.32
2017-10-01T19:24:32.438Z,100365.61
2017-10-01T19:27:35.114Z,100344.42
2017-10-01T19:30:37.036Z,100360.67
2017-10-01T19:33:38.671Z,100358.51
2017-10-01T19:36:41.777Z,100354.43
2017-10-01T19:39:43.811Z,100363.13
2017-10-01T19:42:45.977Z,100359.91
2017-10-01T19:45:47.346Z,100353.97
2017-10-01T19:48:48.604Z,100343.98
2017-10-01T19:51:49.919Z,100351.98
2017-10-01T19:54:52.205Z,100350.38
2017-10-01T19:57:53.584Z,100343.00
2017-10-01T20:00:55.506Z,100348.27
2017-10-01T20:03:57.234Z,100336.08
2017-10-01T20:06:59.300Z,100329.78
2017-10-01T20:10:01.314Z,100313.92
2017-10-01T20:13:02.639Z,100307.39
2017-10-01T20:16:04.022Z,100302.93
2017-10-01T20:19:05.368Z,100302.52
2017-10-01T20:22:06.715Z,100297.98
2017-10-01T20:25:08.051Z,100303.81
2017-10-01T20:28:09.395Z,100311.72
2017-10-01T20:31:10.706Z,100311.69
2017-10-01T20:34:13.052Z,100315.14
2017-10-01T20:37:14.452Z,100318.66
2017-10-01T20:40:15.815Z,100303.95
2017-10-01T20:43:17.069Z,100300.93
2017-10-01T20:46:18.395Z,100293.45
2017-10-01T20:49:19.871Z,100296.56
2017-10-01T20:52:21.214Z,100301.34
2017-10-01T20:55:24.025Z,100304.02
2017-10-01T20:58:26.321Z,100285.34
2017-10-01T21:01:27.761Z,100283.28
2017-10-01T21:04:29.204Z,100284.87
2017-10-01T21:07:30.684Z,100259.92
2017-10-01T21:10:32.049Z,100260.48
2017-10-01T21:13:34.568Z,100253.05
2017-10-01T21:16:35.877Z,100258.83
2017-10-01T21:19:37.950Z,100263.70
2017-10-01T21:22:39.960Z,100255.91
2017-10-01T21:25:41.336Z,100267.16
2017-10-01T21:28:42.712Z,100272.44
2017-10-01T21:31:44.832Z,100261.79
2017-10-01T21:34:46.210Z,100264.63
2017-10-01T21:37:47.575Z,100261.70
2017-10-01T21:40:49.760Z,100252.41
2017-10-01T21:43:51.085Z,100242.30
2017-10-01T21:46:52.523Z,100252.64
2017-10-01T21:49:53.811Z,100249.19
2017-10-01T21:52:55.143Z,100244.43
2017-10-01T21:55:57.176Z,100236.23
2017-10-01T21:58:58.585Z,100235.18
2017-10-01T22:01:59.972Z,100234.38
2017-10-01T22:05:01.317Z,100221.97
2017-10-01T22:08:02.691Z,100218.64
2017-10-01T22:11:04.016Z,100228.43
2017-10-01T22:14:06.575Z,100223.25
2017-10-01T22:17:07.937Z,100228.78
2017-10-01T22:23:17.561Z,100203.70
2017-10-01T22:26:19.677Z,100198.88
2017-10-01T22:29:21.042Z,100201.54
2017-10-01T22:32:22.354Z,100199.87
2017-10-01T22:35:23.693Z,100201.70
2017-10-01T22:38:25.186Z,100191.77
2017-10-01T22:41:26.599Z,100192.20
2017-10-01T22:44:27.931Z,100188.25
2017-10-01T22:47:30.068Z,100183.09
2017-10-01T22:50:31.408Z,100179.80
2017-10-01T22:53:32.845Z,100174.59
2017-10-01T22:56:34.233Z,100180.49
2017-10-01T22:59:35.560Z,100166.00
2017-10-01T23:02:36.900Z,100157.19
2017-10-01T23:05:38.235Z,100149.33
2017-10-01T23:08:39.592Z,100149.52
2017-10-01T23:11:40.887Z,100140.17
2017-10-01T23:14:42.293Z,100146.33
2017-10-01T23:17:43.576Z,100125.46
2017-10-01T23:20:44.895Z,100121.98
2017-10-01T23:23:46.262Z,100119.88
2017-10-01T23:26:47.589Z,100113.70
2017-10-01T23:29:49.166Z,100121.51
2017-10-01T23:32:50.836Z,100095.67
2017-10-01T23:35:53.015Z,100085.26
2017-10-01T23:38:54.377Z,100085.88
2017-10-01T23:41:56.472Z,100067.34
2017-10-01T23:44:57.763Z,100066.46
2017-10-01T23:47:59.097Z,100065.09
2017-10-01T23:51:00.415Z,100045.75
2017-10-01T23:54:01.749Z,100047.13
2017-10-01T23:57:04.140Z,100036.75
